sensor_id;sensor_type;location;lat;lon;timestamp;pressure;altitude;pressure_sealevel;temperature;humidity
52735;BME280;38631;47.572;10.704;2023-02-11T00:01:26;94286.03;;;-4.68;82.72
52735;BME280;38631;47.572;10.704;2023-02-11T00:03:52;94285.34;;;-4.62;82.13
52735;BME280;38631;47.572;10.704;2023-02-11T00:06:18;94285.84;;;-4.67;82.40
52735;BME280;38631;47.572;10.704;2023-02-11T00:08:43;94291.47;;;-4.55;81.70
52735;BME280;38631;47.572;10.704;2023-02-11T00:11:15;94287.22;;;-4.48;81.40
52735;BME280;38631;47.572;10.704;2023-02-11T00:13:42;94283.19;;;-4.50;81.31
52735;BME280;38631;47.572;10.704;2023-02-11T00:16:14;94281.56;;;-4.51;81.03
52735;BME280;38631;47.572;10.704;2023-02-11T00:18:39;94277.66;;;-4.47;80.69
52735;BME280;38631;47.572;10.704;2023-02-11T00:21:07;94275.41;;;-4.50;81.32
52735;BME280;38631;47.572;10.704;2023-02-11T00:23:32;94284.03;;;-4.58;81.58
52735;BME280;38631;47.572;10.704;2023-02-11T00:25:58;94273.41;;;-4.71;82.38
52735;BME280;38631;47.572;10.704;2023-02-11T00:28:23;94277.72;;;-4.56;81.77
52735;BME280;38631;47.572;10.704;2023-02-11T00:30:56;94271.63;;;-4.71;81.76
52735;BME280;38631;47.572;10.704;2023-02-11T00:33:21;94270.72;;;-4.55;82.46
52735;BME280;38631;47.572;10.704;2023-02-11T00:35:47;94269.75;;;-4.54;81.95
52735;BME280;38631;47.572;10.704;2023-02-11T00:38:12;94252.28;;;-4.60;81.08
52735;BME280;38631;47.572;10.704;2023-02-11T00:40:38;94255.44;;;-4.73;81.49
52735;BME280;38631;47.572;10.704;2023-02-11T00:43:03;94261.50;;;-4.58;81.09
52735;BME280;38631;47.572;10.704;2023-02-11T00:45:28;94257.31;;;-4.59;82.10
52735;BME280;38631;47.572;10.704;2023-02-11T00:47:55;94265.94;;;-4.66;81.05
52735;BME280;38631;47.572;10.704;2023-02-11T00:50:20;94257.34;;;-4.67;82.30
52735;BME280;38631;47.572;10.704;2023-02-11T00:52:45;94261.16;;;-4.54;81.48
52735;BME280;38631;47.572;10.704;2023-02-11T00:55:11;94255.09;;;-4.70;81.76
52735;BME280;38631;47.572;10.704;2023-02-11T00:57:36;94261.91;;;-4.69;81.63
52735;BME280;38631;47.572;10.704;2023-02-11T01:00:05;94257.75;;;-4.94;81.21
52735;BME280;38631;47.572;10.704;2023-02-11T01:02:30;94254.13;;;-4.69;81.68
52735;BME280;38631;47.572;10.704;2023-02-11T01:04:56;94256.56;;;-5.23;82.09
52735;BME280;38631;47.572;10.704;2023-02-11T01:07:23;94251.44;;;-5.72;84.25
52735;BME280;38631;47.572;10.704;2023-02-11T01:09:48;94255.22;;;-5.03;82.34
52735;BME280;38631;47.572;10.704;2023-02-11T01:12:14;94248.06;;;-4.92;81.58
52735;BME280;38631;47.572;10.704;2023-02-11T01:14:39;94250.81;;;-5.02;81.04
52735;BME280;38631;47.572;10.704;2023-02-11T01:17:05;94251.69;;;-5.18;81.44
52735;BME280;38631;47.572;10.704;2023-02-11T01:19:30;94258.66;;;-5.27;81.73
52735;BME280;38631;47.572;10.704;2023-02-11T01:21:55;94246.91;;;-5.46;82.63
52735;BME280;38631;47.572;10.704;2023-02-11T01:24:21;94247.78;;;-5.94;84.91
52735;BME280;38631;47.572;10.704;2023-02-11T01:26:46;94254.00;;;-5.31;83.64
52735;BME280;38631;47.572;10.704;2023-02-11T01:29:12;94236.84;;;-5.40;82.90
52735;BME280;38631;47.572;10.704;2023-02-11T01:31:37;94236.66;;;-5.23;83.13
52735;BME280;38631;47.572;10.704;2023-02-11T01:34:02;94240.88;;;-5.22;83.22
52735;BME280;38631;47.572;10.704;2023-02-11T01:36:28;94239.06;;;-5.13;82.24
52735;BME280;38631;47.572;10.704;2023-02-11T01:38:53;94233.22;;;-5.15;82.68
52735;BME280;38631;47.572;10.704;2023-02-11T01:41:18;94223.56;;;-5.29;82.43
52735;BME280;38631;47.572;10.704;2023-02-11T01:43:46;94229.75;;;-5.38;83.53
52735;BME280;38631;47.572;10.704;2023-02-11T01:54:01;94225.31;;;-5.13;82.17
52735;BME280;38631;47.572;10.704;2023-02-11T01:56:55;94219.91;;;-4.95;81.53
52735;BME280;38631;47.572;10.704;2023-02-11T02:05:52;94216.75;;;-5.22;83.43
52735;BME280;38631;47.572;10.704;2023-02-11T02:08:20;94206.94;;;-5.43;83.50
52735;BME280;38631;47.572;10.704;2023-02-11T02:10:49;94201.69;;;-5.27;83.04
52735;BME280;38631;47.572;10.704;2023-02-11T02:13:18;94202.53;;;-5.26;83.15
52735;BME280;38631;47.572;10.704;2023-02-11T02:16:04;94198.38;;;-5.44;82.76
52735;BME280;38631;47.572;10.704;2023-02-11T02:24:37;94179.94;;;-5.57;82.34
52735;BME280;38631;47.572;10.704;2023-02-11T02:27:51;94191.91;;;-5.48;82.75
52735;BME280;38631;47.572;10.704;2023-02-11T02:38:43;94194.13;;;-6.00;83.35
52735;BME280;38631;47.572;10.704;2023-02-11T02:41:12;94195.94;;;-5.45;83.08
52735;BME280;38631;47.572;10.704;2023-02-11T02:43:42;94192.66;;;-5.95;83.19
52735;BME280;38631;47.572;10.704;2023-02-11T02:46:24;94185.44;;;-5.52;83.46
52735;BME280;38631;47.572;10.704;2023-02-11T02:48:51;94184.41;;;-6.15;84.60
52735;BME280;38631;47.572;10.704;2023-02-11T03:02:34;94183.06;;;-5.61;82.34
52735;BME280;38631;47.572;10.704;2023-02-11T03:05:07;94164.44;;;-5.49;82.08
52735;BME280;38631;47.572;10.704;2023-02-11T03:10:16;94158.22;;;-5.39;81.54
52735;BME280;38631;47.572;10.704;2023-02-11T03:12:43;94165.25;;;-5.65;81.38
52735;BME280;38631;47.572;10.704;2023-02-11T03:15:11;94171.91;;;-5.70;81.80
52735;BME280;38631;47.572;10.704;2023-02-11T03:17:40;94173.81;;;-5.56;81.69
52735;BME280;38631;47.572;10.704;2023-02-11T03:20:09;94165.78;;;-5.86;83.23
52735;BME280;38631;47.572;10.704;2023-02-11T03:22:40;94164.25;;;-5.47;82.40
52735;BME280;38631;47.572;10.704;2023-02-11T03:25:08;94166.59;;;-5.29;81.51
52735;BME280;38631;47.572;10.704;2023-02-11T03:27:40;94173.66;;;-5.62;80.71
52735;BME280;38631;47.572;10.704;2023-02-11T03:30:15;94181.34;;;-6.02;82.73
52735;BME280;38631;47.572;10.704;2023-02-11T03:32:55;94172.88;;;-5.63;81.74
52735;BME280;38631;47.572;10.704;2023-02-11T03:35:49;94178.41;;;-5.91;82.40
52735;BME280;38631;47.572;10.704;2023-02-11T03:38:25;94166.84;;;-5.55;81.68
52735;BME280;38631;47.572;10.704;2023-02-11T03:40:54;94147.31;;;-5.74;81.36
52735;BME280;38631;47.572;10.704;2023-02-11T03:43:25;94150.69;;;-5.57;81.12
52735;BME280;38631;47.572;10.704;2023-02-11T03:45:53;94140.22;;;-5.72;81.28
52735;BME280;38631;47.572;10.704;2023-02-11T03:48:25;94146.69;;;-5.68;80.97
52735;BME280;38631;47.572;10.704;2023-02-11T03:50:54;94141.00;;;-5.63;80.71
52735;BME280;38631;47.572;10.704;2023-02-11T03:53:22;94131.03;;;-5.83;82.13
52735;BME280;38631;47.572;10.704;2023-02-11T03:55:49;94128.88;;;-5.63;81.37
52735;BME280;38631;47.572;10.704;2023-02-11T03:58:16;94140.34;;;-5.57;81.06
52735;BME280;38631;47.572;10.704;2023-02-11T04:00:43;94143.06;;;-5.51;80.58
52735;BME280;38631;47.572;10.704;2023-02-11T04:03:09;94144.44;;;-5.79;80.36
52735;BME280;38631;47.572;10.704;2023-02-11T04:05:34;94145.63;;;-5.98;82.37
52735;BME280;38631;47.572;10.704;2023-02-11T04:08:00;94146.28;;;-5.96;81.79
52735;BME280;38631;47.572;10.704;2023-02-11T04:10:26;94136.44;;;-6.09;84.33
52735;BME280;38631;47.572;10.704;2023-02-11T04:12:51;94139.59;;;-5.82;82.09
52735;BME280;38631;47.572;10.704;2023-02-11T04:15:17;94132.00;;;-5.92;81.71
52735;BME280;38631;47.572;10.704;2023-02-11T04:17:42;94136.13;;;-6.06;82.14
52735;BME280;38631;47.572;10.704;2023-02-11T04:20:08;94130.59;;;-5.95;83.36
52735;BME280;38631;47.572;10.704;2023-02-11T04:22:33;94148.31;;;-5.75;82.52
52735;BME280;38631;47.572;10.704;2023-02-11T04:24:59;94153.03;;;-5.79;81.69
52735;BME280;38631;47.572;10.704;2023-02-11T04:27:24;94153.00;;;-5.71;81.13
52735;BME280;38631;47.572;10.704;2023-02-11T04:29:50;94148.75;;;-6.19;82.43
52735;BME280;38631;47.572;10.704;2023-02-11T04:32:15;94158.09;;;-6.10;83.61
52735;BME280;38631;47.572;10.704;2023-02-11T04:34:40;94164.66;;;-5.91;82.74
52735;BME280;38631;47.572;10.704;2023-02-11T04:37:06;94168.59;;;-6.20;83.28
52735;BME280;38631;47.572;10.704;2023-02-11T04:39:32;94169.72;;;-6.22;83.69
52735;BME280;38631;47.572;10.704;2023-02-11T04:41:58;94169.88;;;-6.32;84.48
52735;BME280;38631;47.572;10.704;2023-02-11T04:44:23;94158.41;;;-5.97;83.74
52735;BME280;38631;47.572;10.704;2023-02-11T04:46:48;94163.84;;;-5.83;83.95
52735;BME280;38631;47.572;10.704;2023-02-11T04:49:15;94168.06;;;-5.91;82.42
52735;BME280;38631;47.572;10.704;2023-02-11T04:51:41;94169.03;;;-5.83;81.73
52735;BME280;38631;47.572;10.704;2023-02-11T04:54:06;94169.03;;;-5.83;81.44
52735;BME280;38631;47.572;10.704;2023-02-11T04:56:32;94173.03;;;-5.73;81.70
52735;BME280;38631;47.572;10.704;2023-02-11T04:58:57;94180.97;;;-5.82;82.66
52735;BME280;38631;47.572;10.704;2023-02-11T05:01:22;94179.84;;;-5.80;81.71
52735;BME280;38631;47.572;10.704;2023-02-11T05:03:48;94190.53;;;-5.99;82.81
52735;BME280;38631;47.572;10.704;2023-02-11T05:06:13;94179.91;;;-5.96;83.35
52735;BME280;38631;47.572;10.704;2023-02-11T05:08:39;94175.78;;;-5.66;83.04
52735;BME280;38631;47.572;10.704;2023-02-11T05:11:05;94178.81;;;-5.46;81.34
52735;BME280;38631;47.572;10.704;2023-02-11T05:13:30;94185.78;;;-5.55;81.43
52735;BME280;38631;47.572;10.704;2023-02-11T05:15:56;94190.03;;;-5.78;81.56
52735;BME280;38631;47.572;10.704;2023-02-11T05:18:21;94188.72;;;-5.82;81.11
52735;BME280;38631;47.572;10.704;2023-02-11T05:20:47;94185.16;;;-5.73;80.87
52735;BME280;38631;47.572;10.704;2023-02-11T05:23:12;94191.66;;;-5.69;81.34
52735;BME280;38631;47.572;10.704;2023-02-11T05:25:38;94200.22;;;-5.69;81.20
52735;BME280;38631;47.572;10.704;2023-02-11T05:28:04;94195.19;;;-5.70;81.60
52735;BME280;38631;47.572;10.704;2023-02-11T05:30:30;94198.59;;;-5.61;81.53
52735;BME280;38631;47.572;10.704;2023-02-11T05:32:56;94204.72;;;-5.62;81.70
52735;BME280;38631;47.572;10.704;2023-02-11T05:35:21;94207.28;;;-5.46;81.13
52735;BME280;38631;47.572;10.704;2023-02-11T05:37:47;94202.47;;;-5.74;81.40
52735;BME280;38631;47.572;10.704;2023-02-11T05:40:12;94207.34;;;-5.79;81.15
52735;BME280;38631;47.572;10.704;2023-02-11T05:42:37;94205.34;;;-5.60;81.01
52735;BME280;38631;47.572;10.704;2023-02-11T05:45:03;94193.72;;;-5.56;80.42
52735;BME280;38631;47.572;10.704;2023-02-11T05:47:29;94194.22;;;-5.61;81.07
52735;BME280;38631;47.572;10.704;2023-02-11T05:49:54;94197.31;;;-5.74;80.94
52735;BME280;38631;47.572;10.704;2023-02-11T05:52:21;94184.91;;;-5.95;81.86
52735;BME280;38631;47.572;10.704;2023-02-11T05:54:46;94182.78;;;-6.32;83.21
52735;BME280;38631;47.572;10.704;2023-02-11T05:57:12;94170.53;;;-6.05;83.59
52735;BME280;38631;47.572;10.704;2023-02-11T05:59:38;94170.00;;;-5.76;82.51
52735;BME280;38631;47.572;10.704;2023-02-11T06:02:03;94156.56;;;-5.80;81.67
52735;BME280;38631;47.572;10.704;2023-02-11T06:04:29;94150.25;;;-5.69;81.26
52735;BME280;38631;47.572;10.704;2023-02-11T06:06:54;94149.59;;;-5.79;81.05
52735;BME280;38631;47.572;10.704;2023-02-11T06:09:19;94150.66;;;-5.97;81.63
52735;BME280;38631;47.572;10.704;2023-02-11T06:11:45;94150.13;;;-5.84;81.62
52735;BME280;38631;47.572;10.704;2023-02-11T06:14:10;94151.22;;;-5.70;81.04
52735;BME280;38631;47.572;10.704;2023-02-11T06:16:36;94145.06;;;-5.69;80.87
52735;BME280;38631;47.572;10.704;2023-02-11T06:19:01;94150.72;;;-5.66;81.57
52735;BME280;38631;47.572;10.704;2023-02-11T06:21:27;94154.44;;;-5.68;81.20
52735;BME280;38631;47.572;10.704;2023-02-11T06:23:52;94156.97;;;-5.52;80.09
52735;BME280;38631;47.572;10.704;2023-02-11T06:26:20;94156.09;;;-5.28;79.50
52735;BME280;38631;47.572;10.704;2023-02-11T06:28:46;94156.88;;;-5.67;81.76
52735;BME280;38631;47.572;10.704;2023-02-11T06:31:11;94167.16;;;-6.14;83.45
52735;BME280;38631;47.572;10.704;2023-02-11T06:33:37;94169.88;;;-6.07;83.58
52735;BME280;38631;47.572;10.704;2023-02-11T06:36:04;94174.22;;;-6.00;84.57
52735;BME280;38631;47.572;10.704;2023-02-11T06:38:36;94165.59;;;-5.68;84.37
52735;BME280;38631;47.572;10.704;2023-02-11T06:41:01;94169.09;;;-5.44;84.19
52735;BME280;38631;47.572;10.704;2023-02-11T06:43:26;94174.22;;;-5.28;83.33
52735;BME280;38631;47.572;10.704;2023-02-11T06:45:52;94177.09;;;-5.23;82.82
52735;BME280;38631;47.572;10.704;2023-02-11T06:48:18;94175.50;;;-5.24;83.18
52735;BME280;38631;47.572;10.704;2023-02-11T06:50:44;94160.63;;;-5.30;83.63
52735;BME280;38631;47.572;10.704;2023-02-11T06:53:09;94155.03;;;-5.41;83.73
52735;BME280;38631;47.572;10.704;2023-02-11T06:55:34;94148.28;;;-5.11;83.31
52735;BME280;38631;47.572;10.704;2023-02-11T06:58:00;94138.66;;;-5.03;83.19
52735;BME280;38631;47.572;10.704;2023-02-11T07:00:25;94128.75;;;-4.91;83.01
52735;BME280;38631;47.572;10.704;2023-02-11T07:02:51;94120.13;;;-4.83;82.37
52735;BME280;38631;47.572;10.704;2023-02-11T07:05:16;94114.00;;;-4.90;83.17
52735;BME280;38631;47.572;10.704;2023-02-11T07:07:41;94113.84;;;-4.89;82.55
52735;BME280;38631;47.572;10.704;2023-02-11T07:10:07;94101.78;;;-4.82;81.94
52735;BME280;38631;47.572;10.704;2023-02-11T07:12:32;94082.81;;;-4.74;81.38
52735;BME280;38631;47.572;10.704;2023-02-11T07:14:58;94076.22;;;-4.62;81.78
52735;BME280;38631;47.572;10.704;2023-02-11T07:17:23;94065.41;;;-4.65;81.40
52735;BME280;38631;47.572;10.704;2023-02-11T07:19:48;94081.00;;;-4.50;80.46
52735;BME280;38631;47.572;10.704;2023-02-11T07:22:14;94087.13;;;-4.66;80.18
52735;BME280;38631;47.572;10.704;2023-02-11T07:24:39;94102.38;;;-4.48;78.26
52735;BME280;38631;47.572;10.704;2023-02-11T07:27:04;94105.41;;;-4.22;76.08
52735;BME280;38631;47.572;10.704;2023-02-11T07:29:31;94132.44;;;-4.01;76.32
52735;BME280;38631;47.572;10.704;2023-02-11T07:31:57;94148.28;;;-4.11;77.09
52735;BME280;38631;47.572;10.704;2023-02-11T07:34:22;94144.81;;;-4.03;77.46
52735;BME280;38631;47.572;10.704;2023-02-11T07:36:48;94150.59;;;-4.16;79.65
52735;BME280;38631;47.572;10.704;2023-02-11T07:39:13;94155.88;;;-4.09;81.18
52735;BME280;38631;47.572;10.704;2023-02-11T07:41:39;94171.06;;;-4.06;80.36
52735;BME280;38631;47.572;10.704;2023-02-11T07:44:04;94172.50;;;-4.04;78.25
52735;BME280;38631;47.572;10.704;2023-02-11T07:46:30;94164.94;;;-4.05;78.42
52735;BME280;38631;47.572;10.704;2023-02-11T07:48:56;94173.38;;;-3.88;78.44
52735;BME280;38631;47.572;10.704;2023-02-11T07:51:24;94184.59;;;-3.73;78.57
52735;BME280;38631;47.572;10.704;2023-02-11T07:53:50;94182.63;;;-3.71;79.47
52735;BME280;38631;47.572;10.704;2023-02-11T07:56:18;94197.50;;;-3.65;79.68
52735;BME280;38631;47.572;10.704;2023-02-11T07:58:44;94207.25;;;-3.67;81.01
52735;BME280;38631;47.572;10.704;2023-02-11T08:01:13;94218.84;;;-3.78;80.30
52735;BME280;38631;47.572;10.704;2023-02-11T08:03:40;94213.78;;;-3.71;80.20
52735;BME280;38631;47.572;10.704;2023-02-11T08:06:08;94209.75;;;-3.74;78.97
52735;BME280;38631;47.572;10.704;2023-02-11T08:08:34;94200.44;;;-3.68;77.94
52735;BME280;38631;47.572;10.704;2023-02-11T08:11:13;94196.72;;;-3.51;78.37
52735;BME280;38631;47.572;10.704;2023-02-11T08:13:39;94181.13;;;-3.51;77.98
52735;BME280;38631;47.572;10.704;2023-02-11T08:16:05;94162.97;;;-3.36;77.98
52735;BME280;38631;47.572;10.704;2023-02-11T08:18:31;94150.25;;;-3.31;78.40
52735;BME280;38631;47.572;10.704;2023-02-11T08:21:07;94146.22;;;-3.18;78.39
52735;BME280;38631;47.572;10.704;2023-02-11T08:23:35;94144.22;;;-3.16;78.51
52735;BME280;38631;47.572;10.704;2023-02-11T08:26:06;94151.22;;;-3.02;77.49
52735;BME280;38631;47.572;10.704;2023-02-11T08:28:37;94151.94;;;-2.93;76.75
52735;BME280;38631;47.572;10.704;2023-02-11T08:31:08;94158.25;;;-2.81;76.27
52735;BME280;38631;47.572;10.704;2023-02-11T08:33:34;94153.25;;;-2.83;75.81
52735;BME280;38631;47.572;10.704;2023-02-11T08:36:10;94160.03;;;-2.82;74.50
52735;BME280;38631;47.572;10.704;2023-02-11T08:38:36;94154.38;;;-2.70;74.76
52735;BME280;38631;47.572;10.704;2023-02-11T08:41:02;94147.00;;;-2.67;75.40
52735;BME280;38631;47.572;10.704;2023-02-11T08:43:27;94145.13;;;-2.58;75.21
52735;BME280;38631;47.572;10.704;2023-02-11T08:45:53;94142.41;;;-2.50;73.34
52735;BME280;38631;47.572;10.704;2023-02-11T08:48:18;94145.78;;;-2.49;73.58
52735;BME280;38631;47.572;10.704;2023-02-11T08:50:44;94135.47;;;-2.43;73.14
52735;BME280;38631;47.572;10.704;2023-02-11T08:53:09;94144.25;;;-2.44;74.03
52735;BME280;38631;47.572;10.704;2023-02-11T08:55:34;94166.44;;;-2.48;72.49
52735;BME280;38631;47.572;10.704;2023-02-11T08:58:00;94168.28;;;-2.42;72.74
52735;BME280;38631;47.572;10.704;2023-02-11T09:00:25;94164.50;;;-2.39;74.71
52735;BME280;38631;47.572;10.704;2023-02-11T09:02:51;94171.66;;;-2.05;76.13
52735;BME280;38631;47.572;10.704;2023-02-11T09:05:17;94179.31;;;-1.97;75.37
52735;BME280;38631;47.572;10.704;2023-02-11T09:07:42;94175.47;;;-1.79;74.98
52735;BME280;38631;47.572;10.704;2023-02-11T09:10:09;94183.25;;;-1.58;74.13
52735;BME280;38631;47.572;10.704;2023-02-11T09:12:34;94174.28;;;-1.48;69.29
52735;BME280;38631;47.572;10.704;2023-02-11T09:15:01;94178.75;;;-1.07;70.62
52735;BME280;38631;47.572;10.704;2023-02-11T09:17:27;94175.59;;;-1.31;68.47
52735;BME280;38631;47.572;10.704;2023-02-11T09:19:52;94164.91;;;-1.43;69.50
52735;BME280;38631;47.572;10.704;2023-02-11T09:22:17;94160.28;;;-1.47;69.05
52735;BME280;38631;47.572;10.704;2023-02-11T09:24:43;94163.06;;;-1.49;69.47
52735;BME280;38631;47.572;10.704;2023-02-11T09:27:08;94170.69;;;-1.47;69.35
52735;BME280;38631;47.572;10.704;2023-02-11T09:29:34;94172.91;;;-1.44;70.02
52735;BME280;38631;47.572;10.704;2023-02-11T09:31:59;94177.78;;;-1.35;70.23
52735;BME280;38631;47.572;10.704;2023-02-11T09:34:26;94182.84;;;-1.26;69.86
52735;BME280;38631;47.572;10.704;2023-02-11T09:36:52;94185.84;;;-1.29;68.43
52735;BME280;38631;47.572;10.704;2023-02-11T09:39:18;94184.25;;;-1.24;68.92
52735;BME280;38631;47.572;10.704;2023-02-11T09:44:43;94187.09;;;-1.19;69.71
52735;BME280;38631;47.572;10.704;2023-02-11T09:47:30;94191.13;;;-1.16;68.94
52735;BME280;38631;47.572;10.704;2023-02-11T09:50:09;94186.59;;;-1.07;69.34
52735;BME280;38631;47.572;10.704;2023-02-11T09:52:43;94193.53;;;-0.80;69.14
52735;BME280;38631;47.572;10.704;2023-02-11T09:55:19;94197.69;;;-0.92;69.54
52735;BME280;38631;47.572;10.704;2023-02-11T09:57:45;94203.53;;;-0.90;70.15
52735;BME280;38631;47.572;10.704;2023-02-11T10:00:39;94209.31;;;-0.95;69.95
52735;BME280;38631;47.572;10.704;2023-02-11T10:11:00;94214.81;;;-0.76;66.28
52735;BME280;38631;47.572;10.704;2023-02-11T10:13:50;94196.38;;;-0.75;64.83
52735;BME280;38631;47.572;10.704;2023-02-11T10:16:38;94192.13;;;-0.76;66.96
52735;BME280;38631;47.572;10.704;2023-02-11T10:21:44;94190.75;;;-0.72;68.69
52735;BME280;38631;47.572;10.704;2023-02-11T10:24:13;94178.34;;;-0.70;68.41
52735;BME280;38631;47.572;10.704;2023-02-11T10:26:40;94170.16;;;-0.53;67.83
52735;BME280;38631;47.572;10.704;2023-02-11T10:29:17;94155.53;;;-0.48;67.66
52735;BME280;38631;47.572;10.704;2023-02-11T10:31:47;94152.94;;;-0.41;68.28
52735;BME280;38631;47.572;10.704;2023-02-11T10:34:14;94149.97;;;-0.25;66.27
52735;BME280;38631;47.572;10.704;2023-02-11T10:36:42;94146.16;;;-0.22;66.47
52735;BME280;38631;47.572;10.704;2023-02-11T10:39:14;94134.72;;;-0.14;65.53
52735;BME280;38631;47.572;10.704;2023-02-11T10:41:54;94128.91;;;-0.10;66.26
52735;BME280;38631;47.572;10.704;2023-02-11T10:44:29;94126.09;;;-0.08;65.45
52735;BME280;38631;47.572;10.704;2023-02-11T10:46:58;94118.06;;;0.07;66.26
52735;BME280;38631;47.572;10.704;2023-02-11T10:49:58;94121.09;;;0.24;63.87
52735;BME280;38631;47.572;10.704;2023-02-11T10:52:23;94099.94;;;0.45;62.74
52735;BME280;38631;47.572;10.704;2023-02-11T10:55:19;94094.28;;;0.61;62.72
52735;BME280;38631;47.572;10.704;2023-02-11T10:57:54;94096.88;;;0.75;62.26
52735;BME280;38631;47.572;10.704;2023-02-11T11:00:43;94092.78;;;0.92;62.15
52735;BME280;38631;47.572;10.704;2023-02-11T11:03:20;94102.22;;;1.06;61.46
52735;BME280;38631;47.572;10.704;2023-02-11T11:05:54;94102.22;;;1.00;62.20
52735;BME280;38631;47.572;10.704;2023-02-11T11:08:20;94103.06;;;0.87;63.31
52735;BME280;38631;47.572;10.704;2023-02-11T11:10:48;94103.28;;;0.85;61.77
52735;BME280;38631;47.572;10.704;2023-02-11T11:13:35;94098.44;;;0.82;63.05
52735;BME280;38631;47.572;10.704;2023-02-11T11:18:39;94096.22;;;0.93;62.78
52735;BME280;38631;47.572;10.704;2023-02-11T11:21:20;94094.19;;;1.01;62.04
52735;BME280;38631;47.572;10.704;2023-02-11T11:23:55;94091.69;;;1.20;62.64
52735;BME280;38631;47.572;10.704;2023-02-11T11:26:23;94089.31;;;1.05;64.36
52735;BME280;38631;47.572;10.704;2023-02-11T11:29:12;94087.91;;;1.09;62.57
52735;BME280;38631;47.572;10.704;2023-02-11T11:32:02;94081.03;;;1.15;61.24
52735;BME280;38631;47.572;10.704;2023-02-11T11:34:52;94083.31;;;1.43;61.49
52735;BME280;38631;47.572;10.704;2023-02-11T11:42:40;94080.06;;;1.47;60.29
52735;BME280;38631;47.572;10.704;2023-02-11T11:50:26;94078.03;;;1.56;61.88
52735;BME280;38631;47.572;10.704;2023-02-11T11:55:35;94095.75;;;1.86;63.25
52735;BME280;38631;47.572;10.704;2023-02-11T11:58:03;94088.84;;;1.66;63.97
52735;BME280;38631;47.572;10.704;2023-02-11T12:00:36;94083.97;;;1.70;63.43
52735;BME280;38631;47.572;10.704;2023-02-11T12:06:09;94088.22;;;1.96;62.13
52735;BME280;38631;47.572;10.704;2023-02-11T12:09:00;94079.91;;;2.06;63.56
52735;BME280;38631;47.572;10.704;2023-02-11T12:12:38;94074.50;;;2.01;63.01
52735;BME280;38631;47.572;10.704;2023-02-11T12:14:34;94080.09;;;2.04;62.95
52735;BME280;38631;47.572;10.704;2023-02-11T12:17:25;94078.72;;;2.02;62.11
52735;BME280;38631;47.572;10.704;2023-02-11T12:25:39;94068.59;;;2.30;62.20
52735;BME280;38631;47.572;10.704;2023-02-11T12:39:32;94052.19;;;2.97;59.84
52735;BME280;38631;47.572;10.704;2023-02-11T12:55:37;94050.94;;;2.99;60.85
52735;BME280;38631;47.572;10.704;2023-02-11T12:58:04;94062.25;;;2.81;61.46
52735;BME280;38631;47.572;10.704;2023-02-11T13:00:45;94053.84;;;2.54;63.58
52735;BME280;38631;47.572;10.704;2023-02-11T13:03:30;94050.22;;;2.92;63.05
52735;BME280;38631;47.572;10.704;2023-02-11T13:06:04;94046.06;;;2.85;63.81
52735;BME280;38631;47.572;10.704;2023-02-11T13:08:33;94043.66;;;3.01;62.44
52735;BME280;38631;47.572;10.704;2023-02-11T13:11:25;94047.81;;;3.21;62.53
52735;BME280;38631;47.572;10.704;2023-02-11T13:13:56;94052.59;;;3.12;63.97
52735;BME280;38631;47.572;10.704;2023-02-11T13:16:37;94046.41;;;3.07;61.56
52735;BME280;38631;47.572;10.704;2023-02-11T13:27:28;94027.91;;;3.32;63.01
52735;BME280;38631;47.572;10.704;2023-02-11T13:30:26;94019.66;;;3.16;62.39
52735;BME280;38631;47.572;10.704;2023-02-11T13:37:51;94007.84;;;3.07;62.34
52735;BME280;38631;47.572;10.704;2023-02-11T13:42:51;94016.72;;;3.66;61.33
52735;BME280;38631;47.572;10.704;2023-02-11T13:45:30;94008.38;;;3.70;61.09
52735;BME280;38631;47.572;10.704;2023-02-11T13:47:57;94001.78;;;3.90;59.01
52735;BME280;38631;47.572;10.704;2023-02-11T13:50:24;94006.66;;;3.63;59.12
52735;BME280;38631;47.572;10.704;2023-02-11T13:52:59;94008.81;;;3.55;52.87
52735;BME280;38631;47.572;10.704;2023-02-11T13:55:26;93999.50;;;4.06;49.50
52735;BME280;38631;47.572;10.704;2023-02-11T14:19:42;94002.91;;;4.53;50.14
52735;BME280;38631;47.572;10.704;2023-02-11T14:25:22;93999.06;;;4.44;49.80
52735;BME280;38631;47.572;10.704;2023-02-11T14:27:54;93997.91;;;4.28;49.08
52735;BME280;38631;47.572;10.704;2023-02-11T14:41:26;94011.13;;;4.69;53.75
52735;BME280;38631;47.572;10.704;2023-02-11T14:44:05;93994.34;;;4.58;55.15
52735;BME280;38631;47.572;10.704;2023-02-11T14:46:36;93995.72;;;4.49;55.67
52735;BME280;38631;47.572;10.704;2023-02-11T14:49:04;93992.91;;;4.27;55.83
52735;BME280;38631;47.572;10.704;2023-02-11T14:51:38;94004.06;;;4.46;55.19
52735;BME280;38631;47.572;10.704;2023-02-11T14:54:15;94004.16;;;4.74;52.87
52735;BME280;38631;47.572;10.704;2023-02-11T14:56:41;93999.34;;;4.71;51.97
52735;BME280;38631;47.572;10.704;2023-02-11T14:59:15;94008.91;;;4.37;54.02
52735;BME280;38631;47.572;10.704;2023-02-11T15:01:45;94012.00;;;4.34;53.82
52735;BME280;38631;47.572;10.704;2023-02-11T15:04:31;94017.44;;;4.56;51.94
52735;BME280;38631;47.572;10.704;2023-02-11T15:07:02;94018.50;;;4.55;52.35
52735;BME280;38631;47.572;10.704;2023-02-11T15:09:36;94014.00;;;4.67;51.42
52735;BME280;38631;47.572;10.704;2023-02-11T15:12:04;94022.59;;;4.51;54.15
52735;BME280;38631;47.572;10.704;2023-02-11T15:14:39;94024.78;;;4.19;58.24
52735;BME280;38631;47.572;10.704;2023-02-11T15:17:06;94021.56;;;4.05;58.30
52735;BME280;38631;47.572;10.704;2023-02-11T15:19:33;94031.06;;;3.94;58.10
52735;BME280;38631;47.572;10.704;2023-02-11T15:22:01;94039.94;;;3.93;57.88
52735;BME280;38631;47.572;10.704;2023-02-11T15:24:31;94037.31;;;3.81;58.30
52735;BME280;38631;47.572;10.704;2023-02-11T15:27:03;94038.00;;;3.88;59.00
52735;BME280;38631;47.572;10.704;2023-02-11T15:29:41;94039.44;;;3.73;60.30
52735;BME280;38631;47.572;10.704;2023-02-11T15:32:16;94039.13;;;3.69;59.00
52735;BME280;38631;47.572;10.704;2023-02-11T15:34:43;94047.38;;;3.84;58.81
52735;BME280;38631;47.572;10.704;2023-02-11T15:37:21;94043.25;;;3.77;59.30
52735;BME280;38631;47.572;10.704;2023-02-11T15:39:48;94046.00;;;3.82;60.55
52735;BME280;38631;47.572;10.704;2023-02-11T15:42:29;94052.72;;;3.78;60.90